Time;durP1;ratioP1;P1;durP2;ratioP2;P2;SDS_P1;SDS_P2;PMS_P1;PMS_P2;Temp;Humidity;BMP_temperature;BMP_pressure;BME280_temperature;BME280_humidity;BME280_pressure;Samples;Min_cycle;Max_cycle;Signal;HPM_P1;HPM_P2
2024/01/24 00:02:17;;;;;;;0.88;0.08;;;12.90;99.90;;;;;;5004141;28;20506;-83
2024/01/24 00:04:42;;;;;;;0.20;0.10;;;13.00;99.90;;;;;;5004687;28;20073;-83
2024/01/24 00:07:08;;;;;;;1.45;0.00;;;12.90;99.90;;;;;;5005246;28;20035;-83
2024/01/24 00:09:33;;;;;;;0.60;0.00;;;12.90;99.90;;;;;;5004919;28;20080;-83
2024/01/24 00:12:00;;;;;;;0.57;0.15;;;;;;;;;;5005204;28;20022;-82
2024/01/24 00:14:26;;;;;;;0.00;0.00;;;12.80;99.90;;;;;;5003955;28;20033;-84
2024/01/24 00:16:51;;;;;;;0.20;0.00;;;12.80;99.90;;;;;;5003826;28;20034;-83
2024/01/24 00:19:17;;;;;;;1.08;0.00;;;12.70;99.90;;;;;;5004594;28;20117;-83
2024/01/24 00:21:43;;;;;;;0.00;0.00;;;;;;;;;;5004272;28;20026;-83
2024/01/24 00:24:09;;;;;;;0.10;0.00;;;12.50;99.90;;;;;;5003094;28;20092;-82
2024/01/24 00:26:37;;;;;;;0.10;0.00;;;12.30;99.90;;;;;;5003946;28;20406;-83
2024/01/24 00:29:03;;;;;;;1.20;0.00;;;12.30;99.90;;;;;;5004771;28;20360;-82
2024/01/24 00:31:29;;;;;;;0.00;0.00;;;12.20;99.90;;;;;;5002749;28;20048;-82
2024/01/24 00:33:55;;;;;;;1.65;0.00;;;12.20;99.90;;;;;;5003184;28;20553;-82
2024/01/24 00:36:21;;;;;;;2.25;0.00;;;12.20;99.90;;;;;;5003396;28;20025;-82
2024/01/24 00:38:47;;;;;;;1.58;0.38;;;12.10;99.90;;;;;;5002672;28;20033;-83
2024/01/24 00:41:12;;;;;;;1.30;0.00;;;;;;;;;;5002705;28;20029;-82
2024/01/24 00:43:38;;;;;;;1.60;0.20;;;12.10;99.90;;;;;;5003224;28;20121;-83
2024/01/24 00:46:04;;;;;;;0.73;0.08;;;12.00;99.90;;;;;;5004589;28;20481;-84
2024/01/24 00:48:29;;;;;;;0.77;0.10;;;12.00;99.90;;;;;;5004867;28;20022;-82
2024/01/24 00:50:55;;;;;;;0.30;0.00;;;12.00;99.90;;;;;;5010469;28;20045;-81
2024/01/24 00:53:21;;;;;;;1.13;0.00;;;12.00;99.90;;;;;;5011493;28;20078;-81
2024/01/24 00:55:47;;;;;;;0.43;0.03;;;11.90;99.90;;;;;;5012516;28;20054;-81
2024/01/24 00:58:13;;;;;;;1.38;0.10;;;11.90;99.90;;;;;;5010583;28;20026;-81
2024/01/24 01:00:39;;;;;;;0.63;0.00;;;11.90;99.90;;;;;;5012693;28;20379;-81
2024/01/24 01:03:04;;;;;;;0.70;0.15;;;11.80;99.90;;;;;;5011824;28;20011;-81
2024/01/24 01:05:31;;;;;;;0.52;0.00;;;;;;;;;;5013719;28;20033;-81
2024/01/24 01:07:56;;;;;;;1.23;0.28;;;11.80;99.90;;;;;;5012408;28;20402;-80
2024/01/24 01:10:22;;;;;;;0.73;0.10;;;11.80;99.90;;;;;;5010727;28;20019;-81
2024/01/24 01:12:48;;;;;;;0.40;0.10;;;11.80;99.90;;;;;;5012394;28;20367;-81
2024/01/24 01:15:13;;;;;;;0.82;0.00;;;11.80;99.90;;;;;;5011705;28;20023;-83
2024/01/24 01:17:39;;;;;;;5.55;0.00;;;11.90;99.90;;;;;;5013326;28;20065;-81
2024/01/24 01:20:05;;;;;;;0.57;0.00;;;11.90;99.90;;;;;;5012320;28;20041;-81
2024/01/24 01:22:31;;;;;;;1.05;0.00;;;11.80;99.90;;;;;;5013038;28;20010;-81
2024/01/24 01:24:56;;;;;;;0.90;0.00;;;11.80;99.90;;;;;;5012500;28;20082;-81
2024/01/24 01:27:22;;;;;;;1.17;0.00;;;11.80;99.90;;;;;;5008665;28;20025;-81
2024/01/24 01:29:49;;;;;;;2.22;0.00;;;11.80;99.90;;;;;;5003370;28;20053;-81
2024/01/24 01:32:14;;;;;;;7.32;1.05;;;11.80;99.90;;;;;;5002279;28;20034;-81
2024/01/24 01:34:40;;;;;;;0.28;0.00;;;11.80;99.90;;;;;;5006963;28;20030;-80
2024/01/24 01:37:06;;;;;;;1.90;0.10;;;11.80;99.90;;;;;;5006304;28;20023;-81
2024/01/24 01:39:32;;;;;;;0.32;0.00;;;11.90;99.90;;;;;;5001008;28;20018;-81
2024/01/24 01:41:58;;;;;;;0.22;0.00;;;11.90;99.90;;;;;;5001819;28;20054;-81
2024/01/24 01:44:24;;;;;;;0.45;0.00;;;11.90;99.90;;;;;;5001570;28;20022;-81
2024/01/24 01:46:51;;;;;;;1.05;0.00;;;;;;;;;;5000940;28;20117;-82
2024/01/24 01:49:17;;;;;;;0.03;0.00;;;11.90;99.90;;;;;;5001838;28;20030;-81
2024/01/24 01:51:44;;;;;;;2.83;0.10;;;12.00;99.90;;;;;;5001657;28;20037;-81
2024/01/24 01:54:12;;;;;;;0.15;0.05;;;12.00;99.90;;;;;;5000749;28;20026;-81
2024/01/24 01:56:39;;;;;;;2.42;0.00;;;12.00;99.90;;;;;;5001468;28;20030;-81
2024/01/24 01:59:05;;;;;;;2.15;0.30;;;12.00;99.90;;;;;;5012453;28;20046;-80
2024/01/24 02:01:31;;;;;;;2.92;0.08;;;12.10;99.90;;;;;;5011480;28;20022;-80
2024/01/24 02:03:58;;;;;;;2.38;0.10;;;12.00;99.90;;;;;;5011186;28;20090;-79
2024/01/24 02:06:24;;;;;;;2.05;0.20;;;12.10;99.90;;;;;;5012855;28;20061;-79
2024/01/24 02:08:50;;;;;;;2.38;0.00;;;12.10;99.90;;;;;;5011297;28;20027;-79
2024/01/24 02:11:17;;;;;;;0.47;0.22;;;12.20;99.90;;;;;;5013378;28;20011;-80
2024/01/24 02:13:43;;;;;;;4.22;0.30;;;12.10;99.90;;;;;;5011351;28;20023;-79
2024/01/24 02:16:10;;;;;;;1.17;0.00;;;12.20;99.90;;;;;;5012861;28;20086;-80
2024/01/24 02:18:37;;;;;;;2.20;0.00;;;12.20;99.90;;;;;;5012850;28;20030;-79
2024/01/24 02:21:03;;;;;;;2.58;0.10;;;12.20;99.90;;;;;;5012179;28;20478;-79
2024/01/24 02:23:30;;;;;;;0.68;0.00;;;12.20;99.90;;;;;;5013061;28;20102;-79
2024/01/24 02:25:57;;;;;;;3.72;0.20;;;12.20;99.90;;;;;;5009798;28;20390;-83
2024/01/24 02:28:23;;;;;;;3.17;0.00;;;12.20;99.90;;;;;;5004136;28;20465;-81
2024/01/24 02:30:49;;;;;;;3.53;0.40;;;12.20;99.90;;;;;;5004470;28;20034;-81
2024/01/24 02:33:15;;;;;;;3.92;0.52;;;12.20;99.90;;;;;;5003822;28;20038;-80
2024/01/24 02:35:41;;;;;;;3.70;0.03;;;12.30;99.90;;;;;;5003874;28;20026;-81
2024/01/24 02:38:06;;;;;;;5.82;0.22;;;12.30;99.90;;;;;;5003024;28;20022;-81
2024/01/24 02:40:32;;;;;;;1.38;0.13;;;12.30;99.90;;;;;;5004746;28;20026;-80
2024/01/24 02:42:58;;;;;;;5.75;0.20;;;12.20;99.90;;;;;;5004928;28;20053;-81
2024/01/24 02:45:23;;;;;;;2.85;0.20;;;12.20;99.90;;;;;;5005049;28;20046;-81
2024/01/24 02:47:49;;;;;;;3.40;0.00;;;12.20;99.90;;;;;;5004727;28;20019;-81
2024/01/24 02:50:16;;;;;;;7.07;0.10;;;12.20;99.90;;;;;;5004896;28;20026;-81
2024/01/24 02:52:41;;;;;;;4.18;0.10;;;12.20;99.90;;;;;;5002876;28;20033;-81
2024/01/24 02:55:07;;;;;;;5.72;0.43;;;12.20;99.90;;;;;;5003449;28;20085;-81
2024/01/24 02:57:33;;;;;;;4.47;0.10;;;12.20;99.90;;;;;;5003402;28;20094;-81
2024/01/24 02:59:59;;;;;;;9.50;0.00;;;12.20;99.90;;;;;;5004943;28;20053;-81
2024/01/24 03:02:25;;;;;;;4.28;0.00;;;12.20;99.90;;;;;;5004850;28;20026;-81
2024/01/24 03:04:51;;;;;;;2.25;0.10;;;12.20;99.90;;;;;;5003188;28;20022;-81
2024/01/24 03:07:16;;;;;;;4.63;0.20;;;12.10;99.90;;;;;;5002797;28;20498;-81
2024/01/24 03:09:42;;;;;;;3.60;0.38;;;12.20;99.90;;;;;;5004041;28;20032;-81
2024/01/24 03:12:07;;;;;;;5.35;0.10;;;12.20;99.90;;;;;;5003846;28;20030;-81
2024/01/24 03:14:33;;;;;;;2.00;0.00;;;12.20;99.90;;;;;;5003782;28;20019;-81
2024/01/24 03:16:58;;;;;;;2.83;0.10;;;12.20;99.90;;;;;;5001879;28;20029;-81
2024/01/24 03:19:24;;;;;;;4.13;0.13;;;12.20;99.90;;;;;;5002737;28;20463;-81
2024/01/24 03:21:50;;;;;;;7.95;0.20;;;12.10;99.90;;;;;;5003198;28;20025;-81
2024/01/24 03:24:17;;;;;;;7.95;0.10;;;12.10;99.90;;;;;;5001817;28;20045;-81
2024/01/24 03:26:43;;;;;;;4.95;0.70;;;12.10;99.90;;;;;;5002006;28;20105;-81
2024/01/24 03:29:08;;;;;;;11.60;0.55;;;12.10;99.90;;;;;;5003117;28;20023;-81
2024/01/24 03:31:34;;;;;;;6.25;0.20;;;12.10;99.90;;;;;;5002853;28;20041;-82
2024/01/24 03:33:59;;;;;;;7.05;0.30;;;12.00;99.90;;;;;;5001658;28;20022;-81
2024/01/24 03:36:25;;;;;;;9.98;1.40;;;;;;;;;;5002717;28;20107;-81
2024/01/24 03:38:52;;;;;;;6.60;0.93;;;;;;;;;;5003419;28;20104;-81
2024/01/24 03:41:18;;;;;;;9.50;0.98;;;12.00;99.90;;;;;;5002123;28;20022;-81
2024/01/24 03:43:44;;;;;;;12.40;0.73;;;11.90;99.90;;;;;;5002033;28;20017;-81
2024/01/24 03:46:09;;;;;;;4.40;0.10;;;11.90;99.90;;;;;;5002917;28;20030;-81
2024/01/24 03:48:35;;;;;;;9.15;0.98;;;11.90;99.90;;;;;;5001926;28;20073;-81
2024/01/24 03:51:01;;;;;;;9.40;1.45;;;11.80;99.90;;;;;;5001441;28;20026;-80
2024/01/24 03:53:26;;;;;;;10.43;0.43;;;11.90;99.90;;;;;;5002764;28;20026;-81
2024/01/24 03:55:52;;;;;;;8.13;0.35;;;11.80;99.90;;;;;;5003991;28;20030;-81
2024/01/24 03:58:18;;;;;;;8.95;0.32;;;11.70;99.90;;;;;;5002097;28;20022;-80
2024/01/24 04:00:44;;;;;;;7.05;1.25;;;11.70;99.90;;;;;;5002637;28;20073;-81
2024/01/24 04:03:09;;;;;;;3.97;0.10;;;11.70;99.90;;;;;;5003347;28;20030;-80
2024/01/24 04:05:36;;;;;;;11.77;0.75;;;11.60;99.90;;;;;;5002538;28;20030;-81
2024/01/24 04:08:01;;;;;;;7.15;0.55;;;11.60;99.90;;;;;;5002097;28;20023;-80
2024/01/24 04:10:27;;;;;;;14.02;1.00;;;11.50;99.90;;;;;;5001975;28;20105;-81
2024/01/24 04:12:52;;;;;;;15.73;0.82;;;11.50;99.90;;;;;;5002662;28;20027;-81
2024/01/24 04:15:18;;;;;;;10.68;0.77;;;11.40;99.90;;;;;;5003491;28;20035;-81
2024/01/24 04:17:44;;;;;;;12.57;0.73;;;11.40;99.90;;;;;;5003501;28;20026;-80
2024/01/24 04:20:10;;;;;;;14.90;1.17;;;11.40;99.90;;;;;;5002913;28;20080;-81
2024/01/24 04:22:36;;;;;;;12.50;0.60;;;;;;;;;;5002949;28;20023;-82
2024/01/24 04:25:01;;;;;;;14.02;1.17;;;11.30;99.90;;;;;;5001010;28;20035;-80
2024/01/24 04:27:27;;;;;;;15.93;1.23;;;11.30;99.90;;;;;;5002306;28;20026;-81
2024/01/24 04:29:53;;;;;;;16.25;1.25;;;11.30;99.90;;;;;;5005126;28;20035;-81
2024/01/24 04:32:19;;;;;;;16.95;1.55;;;11.30;99.90;;;;;;5005227;28;20030;-81
2024/01/24 04:34:45;;;;;;;19.63;1.90;;;12.10;99.90;;;;;;5006450;28;20026;-82
2024/01/24 04:37:10;;;;;;;20.67;1.98;;;11.30;99.90;;;;;;5005163;28;20034;-80
2024/01/24 04:39:36;;;;;;;10.98;2.28;;;11.30;99.90;;;;;;5006585;28;20424;-81
2024/01/24 04:42:03;;;;;;;22.65;0.88;;;11.20;99.90;;;;;;5005445;28;20014;-83
2024/01/24 04:44:30;;;;;;;16.63;1.45;;;11.30;99.90;;;;;;5006604;28;20018;-80
2024/01/24 04:46:55;;;;;;;17.63;0.95;;;11.30;99.90;;;;;;5006208;28;20022;-81
2024/01/24 04:49:21;;;;;;;11.73;1.10;;;11.30;99.90;;;;;;5005530;28;20018;-80
2024/01/24 04:51:48;;;;;;;18.98;1.30;;;11.30;99.90;;;;;;5006247;28;20371;-80
2024/01/24 04:54:15;;;;;;;23.60;1.98;;;11.20;99.90;;;;;;5007069;28;20032;-81
2024/01/24 04:56:45;;;;;;;16.58;1.95;;;11.10;99.90;;;;;;5007060;28;20026;-80
2024/01/24 04:59:17;;;;;;;21.70;2.38;;;12.70;99.90;;;;;;5006310;28;20114;-82
2024/01/24 05:01:43;;;;;;;19.30;1.52;;;11.10;99.90;;;;;;5005492;28;20022;-82
2024/01/24 05:04:09;;;;;;;28.60;3.13;;;11.10;99.90;;;;;;5005537;28;20038;-82
2024/01/24 05:06:35;;;;;;;20.52;1.08;;;;;;;;;;5004509;28;20022;-81
2024/01/24 05:09:02;;;;;;;14.93;2.33;;;11.10;99.90;;;;;;5005140;28;20026;-82
2024/01/24 05:11:28;;;;;;;21.45;1.55;;;11.20;99.90;;;;;;5004279;28;20025;-82
2024/01/24 05:13:55;;;;;;;24.20;1.58;;;11.20;99.90;;;;;;5003988;28;20026;-81
2024/01/24 05:16:21;;;;;;;21.92;3.08;;;11.20;99.90;;;;;;5004453;28;20033;-81
2024/01/24 05:18:46;;;;;;;18.35;2.35;;;11.20;99.90;;;;;;5005398;28;20065;-80
2024/01/24 05:21:12;;;;;;;19.30;1.40;;;11.30;99.90;;;;;;5004600;28;20482;-81
2024/01/24 05:23:38;;;;;;;19.25;2.38;;;11.20;99.90;;;;;;5003333;28;20022;-81
2024/01/24 05:26:03;;;;;;;18.40;2.05;;;11.30;99.90;;;;;;5003214;28;20048;-81
2024/01/24 05:28:29;;;;;;;18.05;2.10;;;11.30;99.90;;;;;;5005173;28;20034;-81
2024/01/24 05:30:54;;;;;;;21.50;2.63;;;11.20;99.90;;;;;;5003547;28;20039;-81
2024/01/24 05:33:20;;;;;;;20.77;2.97;;;11.20;99.90;;;;;;5003536;28;20038;-81
2024/01/24 05:35:46;;;;;;;25.52;3.15;;;11.10;99.90;;;;;;5003538;28;20077;-83
2024/01/24 05:38:12;;;;;;;19.33;1.55;;;;;;;;;;5002630;28;20594;-82
2024/01/24 05:40:38;;;;;;;18.67;1.52;;;;;;;;;;5001954;28;20034;-82
2024/01/24 05:43:04;;;;;;;18.70;3.42;;;11.10;99.90;;;;;;5002963;28;20121;-83
2024/01/24 05:45:29;;;;;;;21.58;2.35;;;11.10;99.90;;;;;;5004075;28;20401;-80
2024/01/24 05:47:55;;;;;;;17.17;1.48;;;11.10;99.90;;;;;;5004593;28;20022;-81
2024/01/24 05:50:20;;;;;;;21.77;2.28;;;11.00;99.90;;;;;;5002985;28;20092;-83
2024/01/24 05:52:46;;;;;;;26.13;2.65;;;;;;;;;;5003158;28;20034;-83
2024/01/24 05:55:12;;;;;;;31.23;2.85;;;11.00;99.90;;;;;;5002194;28;20057;-82
2024/01/24 05:57:39;;;;;;;27.48;2.20;;;11.00;99.90;;;;;;5003713;28;20022;-82
2024/01/24 06:00:08;;;;;;;31.75;2.95;;;10.90;99.90;;;;;;5002952;28;20018;-82
2024/01/24 06:02:38;;;;;;;26.55;1.48;;;10.90;99.90;;;;;;5002341;28;20014;-83
2024/01/24 06:05:04;;;;;;;14.82;2.05;;;10.80;99.90;;;;;;5001854;28;20113;-81
2024/01/24 06:07:30;;;;;;;31.48;2.35;;;10.80;99.90;;;;;;5001197;28;20030;-83
2024/01/24 06:09:57;;;;;;;27.23;3.33;;;;;;;;;;5000232;28;20537;-81
2024/01/24 06:12:22;;;;;;;19.95;2.25;;;10.80;99.90;;;;;;4998521;28;20053;-81
2024/01/24 06:14:48;;;;;;;20.20;1.70;;;10.70;99.90;;;;;;4998712;28;20478;-81
2024/01/24 06:17:14;;;;;;;28.25;3.28;;;10.70;99.90;;;;;;4998942;28;20441;-81
2024/01/24 06:19:39;;;;;;;16.40;3.13;;;10.70;99.90;;;;;;4998173;28;20034;-81
2024/01/24 06:22:05;;;;;;;25.52;3.58;;;10.70;99.90;;;;;;4999305;28;20378;-81
2024/01/24 06:24:31;;;;;;;17.40;1.25;;;10.60;99.90;;;;;;5000071;28;20109;-81
2024/01/24 06:26:57;;;;;;;25.33;3.30;;;10.60;99.90;;;;;;4997869;28;20042;-81
2024/01/24 06:29:23;;;;;;;29.63;3.70;;;;;;;;;;4998282;28;20018;-81
2024/01/24 06:31:50;;;;;;;26.08;2.85;;;10.50;99.90;;;;;;4997874;28;20034;-78
2024/01/24 06:34:15;;;;;;;18.77;1.90;;;10.40;99.90;;;;;;4995551;28;20045;-79
2024/01/24 06:36:41;;;;;;;24.55;2.80;;;10.50;99.90;;;;;;4995836;28;20026;-79
2024/01/24 06:39:07;;;;;;;21.30;2.22;;;10.50;99.90;;;;;;4997672;28;20041;-79
2024/01/24 06:41:33;;;;;;;16.33;1.98;;;11.20;99.90;;;;;;4997991;28;20053;-79
2024/01/24 06:43:59;;;;;;;22.00;2.25;;;10.40;99.90;;;;;;4996912;28;20030;-79
2024/01/24 06:46:26;;;;;;;26.58;2.53;;;10.30;99.90;;;;;;4996963;28;20095;-79
2024/01/24 06:48:53;;;;;;;25.67;3.67;;;10.20;99.90;;;;;;4999542;28;20074;-78
2024/01/24 06:51:21;;;;;;;23.98;2.38;;;10.20;99.90;;;;;;4998782;28;20490;-80
2024/01/24 06:53:47;;;;;;;25.17;2.40;;;10.20;99.90;;;;;;4999013;28;20042;-78
2024/01/24 06:56:13;;;;;;;36.97;3.17;;;10.10;99.90;;;;;;4999874;28;20054;-79
2024/01/24 06:58:40;;;;;;;32.85;3.60;;;10.00;99.90;;;;;;4998089;28;20108;-79
2024/01/24 07:01:06;;;;;;;36.80;3.45;;;10.00;99.90;;;;;;4999107;28;20434;-79
2024/01/24 07:03:32;;;;;;;19.67;1.88;;;10.00;99.90;;;;;;4999828;28;20025;-78
2024/01/24 07:05:58;;;;;;;36.90;3.95;;;10.00;99.90;;;;;;4996662;28;20402;-78
2024/01/24 07:08:24;;;;;;;28.95;3.67;;;10.00;99.90;;;;;;4995147;28;20025;-78
2024/01/24 07:10:50;;;;;;;34.83;3.80;;;;;;;;;;4997628;28;20061;-78
2024/01/24 07:13:16;;;;;;;32.97;3.05;;;9.90;99.90;;;;;;4994595;28;20026;-78
2024/01/24 07:15:42;;;;;;;29.27;3.28;;;9.80;99.90;;;;;;4994021;28;20045;-78
2024/01/24 07:18:09;;;;;;;31.10;2.92;;;9.80;99.90;;;;;;4995625;28;20453;-79
2024/01/24 07:20:35;;;;;;;33.60;3.85;;;9.80;99.90;;;;;;4994089;28;20030;-79
2024/01/24 07:23:01;;;;;;;29.92;3.05;;;;;;;;;;4993572;28;20027;-78
2024/01/24 07:25:27;;;;;;;31.98;3.15;;;9.70;99.90;;;;;;4993775;28;20026;-78
2024/01/24 07:27:53;;;;;;;33.65;3.80;;;9.80;99.90;;;;;;4993544;28;20073;-78
2024/01/24 07:30:22;;;;;;;30.90;2.05;;;9.70;99.90;;;;;;4994130;28;20521;-79
2024/01/24 07:32:48;;;;;;;34.22;2.60;;;9.70;99.90;;;;;;4996253;28;20030;-79
2024/01/24 07:35:14;;;;;;;23.90;3.00;;;9.80;99.90;;;;;;4995528;28;20033;-79
2024/01/24 07:37:40;;;;;;;27.33;3.42;;;9.70;99.90;;;;;;4995509;28;20026;-79
2024/01/24 07:40:07;;;;;;;25.25;3.20;;;9.70;99.90;;;;;;4998707;28;20019;-79
2024/01/24 07:42:33;;;;;;;26.92;3.33;;;9.70;99.90;;;;;;4998265;28;20552;-84
2024/01/24 07:44:59;;;;;;;25.42;2.53;;;9.70;99.90;;;;;;5001529;28;20018;-82
2024/01/24 07:47:24;;;;;;;40.53;4.55;;;9.70;99.90;;;;;;5000909;28;20034;-83
2024/01/24 07:49:50;;;;;;;28.90;2.58;;;9.70;99.90;;;;;;5002363;28;20042;-84
2024/01/24 07:52:15;;;;;;;30.90;3.30;;;9.70;99.90;;;;;;5001908;28;20030;-82
2024/01/24 07:54:41;;;;;;;27.55;2.30;;;;;;;;;;5001743;28;20509;-83
2024/01/24 07:57:08;;;;;;;30.77;3.63;;;9.80;99.90;;;;;;5003291;28;20098;-83
2024/01/24 07:59:34;;;;;;;28.05;3.95;;;9.80;99.90;;;;;;5001565;28;20534;-84
2024/01/24 08:02:02;;;;;;;48.10;4.90;;;;;;;;;;5001772;28;20062;-81
2024/01/24 08:04:30;;;;;;;25.05;2.40;;;9.80;99.90;;;;;;5005448;28;20077;-84
2024/01/24 08:06:56;;;;;;;22.00;2.90;;;9.80;99.90;;;;;;5006416;28;20014;-81
2024/01/24 08:09:21;;;;;;;18.02;3.15;;;9.80;99.90;;;;;;5004741;28;20479;-82
2024/01/24 08:11:47;;;;;;;20.65;2.22;;;9.90;99.90;;;;;;5004571;28;20034;-81
2024/01/24 08:14:12;;;;;;;39.00;3.92;;;9.90;99.90;;;;;;5002238;28;20054;-78
2024/01/24 08:16:38;;;;;;;26.65;2.63;;;9.90;99.90;;;;;;5001822;28;20030;-79
2024/01/24 08:19:04;;;;;;;23.42;2.13;;;9.90;99.90;;;;;;5003493;28;20026;-79
2024/01/24 08:21:30;;;;;;;27.25;2.65;;;9.90;99.90;;;;;;5003686;28;20031;-79
2024/01/24 08:23:56;;;;;;;29.17;2.13;;;9.90;99.90;;;;;;5002059;28;20120;-79
2024/01/24 08:26:21;;;;;;;29.55;3.38;;;9.90;99.90;;;;;;5002753;28;20019;-79
2024/01/24 08:28:47;;;;;;;18.02;3.05;;;10.00;99.90;;;;;;5001340;28;20041;-80
2024/01/24 08:31:13;;;;;;;21.33;3.30;;;10.00;99.90;;;;;;5001670;28;20038;-79
2024/01/24 08:33:39;;;;;;;26.50;3.78;;;10.00;99.90;;;;;;5001096;28;20401;-79
2024/01/24 08:36:05;;;;;;;23.20;2.55;;;10.00;99.90;;;;;;5001399;28;20025;-80
2024/01/24 08:38:31;;;;;;;26.35;3.03;;;10.00;99.90;;;;;;5002278;28;20474;-80
2024/01/24 08:40:56;;;;;;;29.20;2.78;;;10.10;99.90;;;;;;5002797;28;20450;-80
2024/01/24 08:43:22;;;;;;;28.42;2.25;;;10.10;99.90;;;;;;5004058;28;20040;-80
2024/01/24 08:45:50;;;;;;;29.80;4.45;;;10.10;99.90;;;;;;5002216;28;20041;-80
2024/01/24 08:48:17;;;;;;;30.70;4.45;;;10.10;99.90;;;;;;5004552;28;20447;-80
2024/01/24 08:50:43;;;;;;;27.20;1.83;;;10.10;99.90;;;;;;5003498;28;20134;-80
2024/01/24 08:53:08;;;;;;;21.70;2.63;;;10.10;99.90;;;;;;5001807;28;20081;-81
2024/01/24 08:55:34;;;;;;;25.17;3.55;;;10.10;99.90;;;;;;5002791;28;20035;-80
2024/01/24 08:58:00;;;;;;;27.38;1.95;;;10.20;99.90;;;;;;5002756;28;20037;-80
2024/01/24 09:00:25;;;;;;;18.20;1.55;;;10.20;99.90;;;;;;5003530;28;20443;-80
2024/01/24 09:02:51;;;;;;;39.88;4.32;;;10.20;99.90;;;;;;5003744;28;20026;-80
2024/01/24 09:05:19;;;;;;;15.90;3.15;;;10.20;99.90;;;;;;5004043;28;20034;-81
2024/01/24 09:07:45;;;;;;;20.73;1.95;;;10.20;99.90;;;;;;5004350;28;20014;-79
2024/01/24 09:10:11;;;;;;;35.05;3.60;;;10.30;99.90;;;;;;5001902;28;20030;-79
2024/01/24 09:12:39;;;;;;;22.02;2.92;;;10.30;99.90;;;;;;4999408;28;20418;-79
2024/01/24 09:15:05;;;;;;;26.08;2.33;;;10.30;99.90;;;;;;4999198;28;20026;-79
2024/01/24 09:17:33;;;;;;;25.95;2.33;;;10.30;99.90;;;;;;4999959;28;20026;-79
2024/01/24 09:19:59;;;;;;;29.15;3.53;;;;;;;;;;4999431;28;20103;-79
2024/01/24 09:22:25;;;;;;;24.60;2.53;;;10.40;99.90;;;;;;4999595;28;20385;-79
2024/01/24 09:24:51;;;;;;;30.27;3.75;;;10.40;99.90;;;;;;4999446;28;20046;-79
2024/01/24 09:27:16;;;;;;;26.33;2.53;;;10.40;99.90;;;;;;4997172;28;20481;-78
2024/01/24 09:29:42;;;;;;;23.35;1.63;;;10.40;99.90;;;;;;4999632;28;20117;-80
2024/01/24 09:32:07;;;;;;;31.05;3.42;;;10.50;99.90;;;;;;5000305;28;20033;-79
2024/01/24 09:34:33;;;;;;;19.92;3.10;;;10.50;99.90;;;;;;4997423;28;20019;-80
2024/01/24 09:36:59;;;;;;;25.10;2.47;;;10.50;99.90;;;;;;5001346;28;20023;-81
2024/01/24 09:39:27;;;;;;;18.58;2.08;;;10.60;99.90;;;;;;5002984;28;20510;-80
2024/01/24 09:41:53;;;;;;;21.65;2.60;;;10.60;99.90;;;;;;5002832;28;20030;-80
2024/01/24 09:44:19;;;;;;;26.00;2.03;;;10.60;99.90;;;;;;5002814;28;20018;-80
2024/01/24 09:46:47;;;;;;;20.65;1.80;;;10.60;99.90;;;;;;5002051;28;20065;-79
2024/01/24 09:49:14;;;;;;;30.10;3.72;;;10.60;99.90;;;;;;5001733;28;20035;-80
2024/01/24 09:51:42;;;;;;;36.97;3.28;;;10.60;99.90;;;;;;5000840;28;20049;-80
2024/01/24 09:54:08;;;;;;;33.22;4.43;;;10.70;99.90;;;;;;5002549;28;20023;-81
2024/01/24 09:56:38;;;;;;;22.23;2.70;;;10.70;99.90;;;;;;5002072;28;20041;-80
2024/01/24 09:59:04;;;;;;;14.65;1.98;;;10.80;99.90;;;;;;5001863;28;20033;-80
2024/01/24 10:01:33;;;;;;;16.58;1.67;;;10.80;99.90;;;;;;5001328;28;20042;-80
2024/01/24 10:04:00;;;;;;;29.52;2.33;;;10.90;99.90;;;;;;5002520;28;20022;-80
2024/01/24 10:06:27;;;;;;;25.98;2.45;;;10.90;99.90;;;;;;5002691;28;20526;-80
2024/01/24 10:08:54;;;;;;;26.55;3.17;;;11.00;99.90;;;;;;5002089;28;20101;-80
2024/01/24 10:11:20;;;;;;;24.73;3.17;;;;;;;;;;5001649;28;20081;-79
2024/01/24 10:13:48;;;;;;;23.95;2.10;;;11.10;99.90;;;;;;5002660;28;20037;-80
2024/01/24 10:16:14;;;;;;;27.90;2.70;;;11.20;99.90;;;;;;5000171;28;20402;-80
2024/01/24 10:18:41;;;;;;;21.58;2.20;;;11.20;99.90;;;;;;5001273;28;20038;-80
2024/01/24 10:21:07;;;;;;;21.88;1.52;;;11.20;99.90;;;;;;4999148;28;20023;-80
2024/01/24 10:23:33;;;;;;;28.88;2.47;;;11.20;99.90;;;;;;5002037;28;20028;-79
2024/01/24 10:25:59;;;;;;;18.98;1.48;;;11.20;99.90;;;;;;5000089;28;20053;-80
2024/01/24 10:28:25;;;;;;;21.33;1.70;;;11.20;99.90;;;;;;5001304;28;20093;-80
2024/01/24 10:30:51;;;;;;;18.80;2.63;;;11.20;99.90;;;;;;4997139;28;20061;-77
2024/01/24 10:33:17;;;;;;;28.50;1.55;;;11.10;99.90;;;;;;4996250;28;20090;-82
2024/01/24 10:35:46;;;;;;;18.73;1.63;;;11.10;99.90;;;;;;4998184;28;20077;-78
2024/01/24 10:38:12;;;;;;;23.67;1.63;;;11.00;99.90;;;;;;4995525;28;20026;-78
2024/01/24 10:40:41;;;;;;;26.67;3.25;;;11.00;99.90;;;;;;4993743;28;20117;-78
2024/01/24 10:43:12;;;;;;;25.02;1.92;;;10.90;99.90;;;;;;4993716;28;20482;-76
2024/01/24 10:45:43;;;;;;;18.58;2.00;;;11.00;99.90;;;;;;4995434;28;20018;-79
2024/01/24 10:48:10;;;;;;;16.45;1.42;;;11.00;99.90;;;;;;4995033;28;20030;-78
2024/01/24 10:50:39;;;;;;;21.85;1.60;;;11.00;99.90;;;;;;4994875;28;20022;-76
2024/01/24 10:53:06;;;;;;;29.92;3.65;;;11.00;99.90;;;;;;4995013;28;20102;-76
2024/01/24 10:55:33;;;;;;;25.30;2.70;;;10.90;99.90;;;;;;4995024;28;20490;-77
2024/01/24 10:57:59;;;;;;;26.45;2.65;;;10.90;99.90;;;;;;4994003;28;20026;-77
2024/01/24 11:00:25;;;;;;;35.85;3.63;;;10.90;99.90;;;;;;4994147;28;20033;-77
2024/01/24 11:02:54;;;;;;;30.42;2.92;;;10.90;99.90;;;;;;4995300;28;20026;-77
2024/01/24 11:05:24;;;;;;;;;;;11.00;99.90;;;;;;4993843;28;20077;-76
2024/01/24 11:07:52;;;;;;;20.30;1.02;;;11.00;99.90;;;;;;4994144;28;19910;-77
2024/01/24 11:10:42;;;;;;;27.38;2.25;;;11.00;99.90;;;;;;4995714;28;20036;-77
2024/01/24 11:13:10;;;;;;;18.17;1.92;;;11.10;99.90;;;;;;4994899;28;20038;-78
2024/01/24 11:15:36;;;;;;;22.30;2.15;;;11.10;99.90;;;;;;4995485;28;20030;-78
2024/01/24 11:18:32;;;;;;;25.90;3.15;;;11.10;99.90;;;;;;4994096;28;20044;-77
2024/01/24 11:20:59;;;;;;;16.75;1.98;;;11.00;99.90;;;;;;4994488;28;20030;-77
2024/01/24 11:23:41;;;;;;;14.52;1.25;;;11.10;99.90;;;;;;4993627;28;20109;-77
2024/01/24 11:26:14;;;;;;;18.27;3.35;;;11.10;99.90;;;;;;4995375;28;20033;-77
2024/01/24 11:28:40;;;;;;;32.95;2.50;;;11.00;99.90;;;;;;4993455;28;20034;-77
2024/01/24 11:31:08;;;;;;;32.45;2.58;;;11.10;99.90;;;;;;4994231;28;20110;-77
2024/01/24 11:33:34;;;;;;;;;;;11.00;99.90;;;;;;4995447;28;20374;-78
2024/01/24 11:36:02;;;;;;;18.25;1.08;;;11.00;99.90;;;;;;4995509;28;19917;-77
2024/01/24 11:38:28;;;;;;;24.65;4.82;;;11.00;99.90;;;;;;4995436;28;20023;-77
2024/01/24 11:40:59;;;;;;;21.80;2.40;;;11.00;99.90;;;;;;4995094;28;20022;-77
2024/01/24 11:43:28;;;;;;;17.88;1.88;;;11.00;99.90;;;;;;4993594;28;20390;-76
2024/01/24 11:45:55;;;;;;;11.88;1.60;;;10.90;99.90;;;;;;4995026;28;20022;-77
2024/01/24 11:48:21;;;;;;;22.52;3.15;;;10.90;99.90;;;;;;4994838;28;20378;-78
2024/01/24 11:51:00;;;;;;;22.90;1.33;;;10.90;99.90;;;;;;4995276;28;20027;-76
2024/01/24 11:53:26;;;;;;;28.65;3.35;;;11.00;99.90;;;;;;4995144;28;20037;-76
2024/01/24 11:55:59;;;;;;;18.63;1.65;;;11.00;99.90;;;;;;4993670;28;20037;-77
2024/01/24 11:58:26;;;;;;;18.48;1.63;;;11.10;99.90;;;;;;4993505;28;20031;-77
2024/01/24 12:00:56;;;;;;;22.60;1.35;;;11.10;99.90;;;;;;4993065;28;20027;-77
2024/01/24 12:03:22;;;;;;;25.30;1.33;;;11.10;99.90;;;;;;4994812;28;20474;-77
2024/01/24 12:05:48;;;;;;;16.15;2.08;;;11.20;99.90;;;;;;4997691;28;20050;-82
2024/01/24 12:08:14;;;;;;;22.15;2.10;;;11.20;99.90;;;;;;5001381;28;20034;-82
2024/01/24 12:10:40;;;;;;;16.80;2.25;;;;;;;;;;4999784;28;20030;-83
2024/01/24 12:13:07;;;;;;;22.20;1.58;;;11.20;99.90;;;;;;4999051;28;20026;-82
2024/01/24 12:15:36;;;;;;;17.40;1.58;;;11.20;99.90;;;;;;5001553;28;20050;-83
2024/01/24 12:18:08;;;;;;;20.33;2.10;;;11.20;99.90;;;;;;5000560;28;20493;-82
2024/01/24 12:20:35;;;;;;;18.23;1.55;;;11.10;99.90;;;;;;4999571;28;20018;-83
2024/01/24 12:23:08;;;;;;;25.52;1.25;;;11.10;99.90;;;;;;5000302;28;20105;-83
2024/01/24 12:25:34;;;;;;;13.70;1.08;;;;;;;;;;5000802;28;20022;-82
2024/01/24 12:28:01;;;;;;;22.10;1.95;;;11.10;99.90;;;;;;5001190;28;20030;-82
2024/01/24 12:30:32;;;;;;;18.98;1.13;;;11.10;99.90;;;;;;5000580;28;20096;-83
2024/01/24 12:32:59;;;;;;;11.90;0.77;;;11.10;99.90;;;;;;4999654;28;20089;-82
2024/01/24 12:35:24;;;;;;;26.15;2.53;;;11.00;99.90;;;;;;4999999;28;20069;-82
2024/01/24 12:37:51;;;;;;;23.63;2.35;;;11.00;99.90;;;;;;4999283;28;20031;-81
2024/01/24 12:40:17;;;;;;;10.27;0.55;;;11.00;99.90;;;;;;5000738;28;20044;-81
2024/01/24 12:42:43;;;;;;;17.67;1.85;;;11.00;99.90;;;;;;5000203;28;20114;-81
2024/01/24 12:45:13;;;;;;;16.40;1.80;;;11.00;99.90;;;;;;4999819;28;20029;-81